Time;durP1;ratioP1;P1;durP2;ratioP2;P2;SDS_P1;SDS_P2;PMS_P1;PMS_P2;Temp;Humidity;BMP_temperature;BMP_pressure;BME280_temperature;BME280_humidity;BME280_pressure;Samples;Min_cycle;Max_cycle;Signal;HPM_P1;HPM_P2
2022/02/18 00:02:06;;;;;;;49.40;15.65;;;;;;;5.40;100.00;99120.62;1696614;84;20964;-93
2022/02/18 00:04:32;;;;;;;47.95;16.20;;;;;;;5.40;100.00;99112.60;1672957;83;21141;-90
2022/02/18 00:07:00;;;;;;;50.40;16.82;;;;;;;5.41;100.00;99102.72;1673209;84;21063;-93
2022/02/18 00:09:26;;;;;;;53.70;16.97;;;;;;;5.41;100.00;99103.55;1696291;84;21195;-92
2022/02/18 00:11:52;;;;;;;48.00;15.98;;;;;;;5.43;100.00;99103.27;1696486;84;21078;-92
2022/02/18 00:14:18;;;;;;;52.00;17.07;;;;;;;5.42;100.00;99101.13;1696492;84;21026;-92
2022/02/18 00:16:44;;;;;;;42.62;16.12;;;;;;;5.42;100.00;99109.14;1696469;84;21074;-94
2022/02/18 00:19:10;;;;;;;46.15;16.50;;;;;;;5.44;100.00;99105.69;1696245;84;21102;-93
2022/02/18 00:21:37;;;;;;;51.15;17.35;;;;;;;5.43;100.00;99104.60;1696374;84;21083;-93
2022/02/18 00:24:04;;;;;;;51.40;16.52;;;;;;;5.43;100.00;99104.60;1696576;84;21089;-93
2022/02/18 00:26:30;;;;;;;54.53;18.30;;;;;;;5.46;100.00;99108.08;1696680;83;21082;-93
2022/02/18 00:28:56;;;;;;;44.88;15.75;;;;;;;5.49;100.00;99103.55;1696418;84;21774;-93
2022/02/18 00:31:21;;;;;;;60.15;16.50;;;;;;;5.51;100.00;99089.94;1696047;83;21632;-93
2022/02/18 00:33:47;;;;;;;57.05;17.73;;;;;;;5.53;100.00;99082.44;1696517;84;21115;-93
2022/02/18 00:36:13;;;;;;;55.17;18.50;;;;;;;5.57;100.00;99080.87;1696493;84;21020;-93
2022/02/18 00:38:41;;;;;;;64.58;19.70;;;;;;;5.57;100.00;99084.88;1716780;80;21019;-94
2022/02/18 00:41:08;;;;;;;50.30;17.65;;;;;;;5.58;100.00;99078.45;1791973;80;21051;-95
2022/02/18 00:43:35;;;;;;;49.60;18.37;;;;;;;5.60;100.00;99091.03;1792357;80;20971;-95
2022/02/18 00:46:01;;;;;;;55.65;19.23;;;;;;;5.60;100.00;99087.02;1792225;80;21499;-94
2022/02/18 00:48:27;;;;;;;60.95;19.35;;;;;;;5.60;100.00;99095.83;1792100;80;20911;-94
2022/02/18 00:50:53;;;;;;;57.08;18.32;;;;;;;5.61;100.00;99082.73;1792326;80;21656;-95
2022/02/18 00:53:19;;;;;;;55.65;19.70;;;;;;;5.65;100.00;99088.38;1792473;80;20860;-94
2022/02/18 00:55:45;;;;;;;64.75;19.77;;;;;;;5.67;100.00;99095.57;1792537;80;21030;-95
2022/02/18 00:58:11;;;;;;;54.53;19.15;;;;;;;5.69;100.00;99106.81;1792322;80;21078;-94
2022/02/18 01:00:38;;;;;;;51.45;19.37;;;;;;;5.71;100.00;99106.02;1792300;80;20900;-95
2022/02/18 01:03:04;;;;;;;63.05;21.95;;;;;;;5.77;100.00;99106.30;1792092;80;21054;-93
2022/02/18 01:05:30;;;;;;;58.40;19.90;;;;;;;5.79;100.00;99099.34;1792354;80;21546;-94
2022/02/18 01:07:56;;;;;;;54.10;20.12;;;;;;;5.82;100.00;99103.61;1792281;80;21578;-94
2022/02/18 01:10:23;;;;;;;58.35;20.35;;;;;;;5.83;100.00;99103.10;1792407;80;21097;-95
2022/02/18 01:12:49;;;;;;;56.35;21.17;;;;;;;5.82;100.00;99104.95;1792200;80;21030;-93
2022/02/18 01:15:15;;;;;;;63.28;20.40;;;;;;;5.82;100.00;99099.60;1792563;80;20995;-93
2022/02/18 01:17:41;;;;;;;70.05;20.90;;;;;;;5.82;100.00;99098.80;1792209;80;20979;-94
2022/02/18 01:20:10;;;;;;;56.68;20.52;;;;;;;5.81;100.00;99087.31;1792159;80;20975;-94
2022/02/18 01:22:36;;;;;;;65.75;20.70;;;;;;;5.82;100.00;99088.91;1792447;80;21309;-94
2022/02/18 01:25:05;;;;;;;66.67;19.30;;;;;;;5.83;100.00;99089.73;1792136;80;20840;-94
2022/02/18 01:27:32;;;;;;;60.25;20.45;;;;;;;5.81;100.00;99096.67;1792173;80;21058;-95
2022/02/18 01:29:57;;;;;;;65.85;21.37;;;;;;;5.82;100.00;99090.78;1792148;79;21563;-92
2022/02/18 01:32:23;;;;;;;58.25;20.08;;;;;;;5.82;100.00;99088.91;1792495;80;20891;-93
2022/02/18 01:34:49;;;;;;;67.90;21.35;;;;;;;5.85;100.00;99088.91;1793041;80;21022;-92
2022/02/18 01:37:15;;;;;;;57.62;20.43;;;;;;;5.86;100.00;99083.31;1792646;80;20919;-94
2022/02/18 01:39:41;;;;;;;63.45;21.48;;;;;;;5.88;100.00;99081.70;1792720;80;21719;-95
2022/02/18 01:42:07;;;;;;;65.90;21.68;;;;;;;5.89;100.00;99077.44;1792762;80;20941;-92
2022/02/18 01:44:43;;;;;;;61.05;21.55;;;;;;;5.94;100.00;99083.34;1793032;80;21515;-95
2022/02/18 01:47:17;;;;;;;57.13;20.65;;;;;;;5.96;100.00;99092.44;1792848;80;21088;-94
2022/02/18 01:49:45;;;;;;;72.03;21.90;;;;;;;5.95;100.00;99094.86;1792719;80;20975;-95
2022/02/18 01:52:12;;;;;;;64.75;21.85;;;;;;;5.95;100.00;99094.86;1792706;80;21054;-93
2022/02/18 01:54:39;;;;;;;60.78;21.02;;;;;;;5.94;100.00;99083.34;1792800;80;21165;-95
2022/02/18 01:57:05;;;;;;;59.33;21.07;;;;;;;5.95;100.00;99073.47;1792737;80;21026;-95
2022/02/18 01:59:31;;;;;;;64.37;21.80;;;;;;;5.96;100.00;99071.84;1793010;80;21143;-94
2022/02/18 02:02:01;;;;;;;57.58;20.55;;;;;;;5.96;100.00;99070.52;1792856;80;20958;-94
2022/02/18 02:04:28;;;;;;;66.55;21.65;;;;;;;5.96;100.00;99068.38;1766840;80;22216;-95
2022/02/18 02:06:58;;;;;;;60.05;21.35;;;;;;;5.95;100.00;99070.25;1792848;80;21035;-95
2022/02/18 02:09:26;;;;;;;65.30;22.10;;;;;;;5.96;100.00;99068.38;1793061;80;21026;-95
2022/02/18 02:11:52;;;;;;;59.18;19.42;;;;;;;5.97;100.00;99075.32;1792780;80;21097;-94
2022/02/18 02:14:18;;;;;;;71.45;21.52;;;;;;;5.96;100.00;99071.05;1793145;80;20848;-95
2022/02/18 02:16:44;;;;;;;71.90;22.22;;;;;;;5.95;100.00;99074.27;1792755;80;21015;-95
2022/02/18 02:19:10;;;;;;;69.80;21.25;;;;;;;5.98;100.00;99075.07;1793031;80;21073;-95
2022/02/18 02:21:37;;;;;;;71.85;23.18;;;;;;;6.00;100.00;99090.83;1793022;80;21046;-95
2022/02/18 02:24:04;;;;;;;70.67;21.62;;;;;;;5.99;100.00;99084.69;1792651;80;21051;-94
2022/02/18 02:26:31;;;;;;;61.08;20.45;;;;;;;6.03;100.00;99088.45;1792734;80;21054;-95
2022/02/18 02:28:57;;;;;;;72.67;21.80;;;;;;;6.07;100.00;99091.38;1792749;80;21026;-95
2022/02/18 02:31:25;;;;;;;63.35;21.27;;;;;;;6.08;100.00;99093.77;1786099;80;21074;-94
2022/02/18 02:33:51;;;;;;;68.50;22.40;;;;;;;6.10;100.00;99092.19;1780366;80;21082;-94
2022/02/18 02:36:22;;;;;;;61.77;22.05;;;;;;;6.10;100.00;99096.99;1780099;80;21031;-95
2022/02/18 02:38:48;;;;;;;65.70;20.80;;;;;;;6.13;100.00;99105.02;1767554;81;20970;-94
2022/02/18 02:41:16;;;;;;;64.47;22.02;;;;;;;6.14;100.00;99113.30;1815638;78;20971;-94
2022/02/18 02:43:41;;;;;;;69.05;21.77;;;;;;;6.16;100.00;99110.38;1830237;77;21042;-95
2022/02/18 02:46:07;;;;;;;71.07;22.87;;;;;;;6.18;100.00;99118.91;1829910;78;21609;-94
2022/02/18 02:48:33;;;;;;;60.08;21.52;;;;;;;6.20;100.00;99126.94;1772299;79;21176;-94
2022/02/18 02:51:01;;;;;;;69.50;21.97;;;;;;;6.24;100.00;99128.57;1799532;79;21689;-94
2022/02/18 02:53:27;;;;;;;60.15;21.75;;;;;;;6.26;100.00;99120.52;1798987;79;21010;-94
2022/02/18 02:55:53;;;;;;;64.37;21.15;;;;;;;6.26;100.00;99131.22;1799666;79;20856;-95
2022/02/18 02:58:19;;;;;;;72.97;22.98;;;;;;;6.30;100.00;99134.98;1799666;79;20864;-95
2022/02/18 03:00:45;;;;;;;66.53;22.13;;;;;;;6.33;100.00;99147.03;1799654;79;21143;-94
2022/02/18 03:03:11;;;;;;;67.15;23.60;;;;;;;6.28;100.00;99146.48;1799632;79;21018;-92
2022/02/18 03:05:37;;;;;;;68.05;23.45;;;;;;;6.28;100.00;99141.67;1799727;79;20935;-95
2022/02/18 03:08:04;;;;;;;64.17;21.82;;;;;;;6.30;100.00;99140.34;1799294;79;21065;-95
2022/02/18 03:10:31;;;;;;;58.65;21.15;;;;;;;6.31;100.00;99140.59;1799292;79;21027;-95
2022/02/18 03:12:57;;;;;;;80.80;26.57;;;;;;;6.33;100.00;99140.34;1799902;79;21177;-95
2022/02/18 03:15:23;;;;;;;84.87;28.75;;;;;;;6.36;100.00;99139.80;1799319;79;21014;-94
2022/02/18 03:17:49;;;;;;;76.97;25.65;;;;;;;6.41;100.00;99134.97;1799355;79;20880;-94
2022/02/18 03:20:15;;;;;;;69.27;22.32;;;;;;;6.40;100.00;99133.38;1799559;79;20962;-95
2022/02/18 03:22:41;;;;;;;64.95;22.30;;;;;;;6.36;100.00;99128.56;1799502;79;21026;-95
2022/02/18 03:25:08;;;;;;;65.40;21.77;;;;;;;6.37;100.00;99125.34;1799303;79;21101;-95
2022/02/18 03:27:33;;;;;;;69.35;27.35;;;;;;;6.36;100.00;99125.89;1799218;79;21046;-96
2022/02/18 03:29:59;;;;;;;58.55;22.02;;;;;;;6.37;100.00;99128.81;1799572;79;20896;-96
2022/02/18 03:32:25;;;;;;;72.27;22.02;;;;;;;6.35;100.00;99129.64;1800119;79;20879;-94
2022/02/18 03:34:51;;;;;;;63.35;20.68;;;;;;;6.33;100.00;99106.36;1801145;79;20875;-95
2022/02/18 03:37:17;;;;;;;64.55;19.90;;;;;;;6.28;100.00;99098.87;1800562;79;21039;-95
2022/02/18 03:39:43;;;;;;;156.57;36.40;;;;;;;6.20;100.00;99098.06;1800606;79;20954;-95
2022/02/18 03:42:10;;;;;;;98.25;28.00;;;;;;;6.16;100.00;99092.45;1800721;79;21550;-94
2022/02/18 03:44:36;;;;;;;85.00;25.43;;;;;;;6.10;100.00;99089.52;1800574;79;20951;-95
2022/02/18 03:47:05;;;;;;;70.80;21.80;;;;;;;6.05;100.00;99096.19;1795305;79;20951;-95
2022/02/18 03:49:32;;;;;;;62.00;20.48;;;;;;;5.96;100.00;99093.78;1800684;79;21239;-96
2022/02/18 03:51:58;;;;;;;62.13;19.70;;;;;;;5.89;100.00;99096.15;1800788;79;21006;-95
2022/02/18 03:54:25;;;;;;;52.03;18.25;;;;;;;5.82;100.00;99103.61;1800787;79;21007;-95
2022/02/18 03:56:53;;;;;;;60.35;18.02;;;;;;;5.75;100.00;99116.44;1800079;79;20980;-95
2022/02/18 03:59:19;;;;;;;59.83;19.85;;;;;;;5.73;100.00;99119.90;1769939;79;21003;-95
2022/02/18 04:01:45;;;;;;;58.10;20.10;;;;;;;5.72;100.00;99137.55;1800606;79;21012;-95
2022/02/18 04:04:11;;;;;;;66.50;20.52;;;;;;;5.72;100.00;99137.55;1800103;79;20982;-95
2022/02/18 04:06:38;;;;;;;54.25;20.12;;;;;;;5.75;100.00;99143.17;1769501;79;20954;-94
2022/02/18 04:09:04;;;;;;;67.75;20.35;;;;;;;5.76;100.00;99158.12;1800627;79;21074;-94
2022/02/18 04:11:30;;;;;;;57.27;19.40;;;;;;;5.75;100.00;99159.20;1800650;79;21058;-94
2022/02/18 04:13:56;;;;;;;63.87;19.62;;;;;;;5.75;100.00;99163.22;1800767;79;21156;-96
2022/02/18 04:16:23;;;;;;;64.92;20.37;;;;;;;5.74;100.00;99166.17;1800505;79;20875;-95
2022/02/18 04:18:56;;;;;;;53.75;19.85;;;;;;;5.72;100.00;99170.96;1800290;79;20987;-95
2022/02/18 04:21:18;;;;;;;64.92;20.23;;;;;;;5.73;100.00;99178.70;1795185;79;21000;-96
2022/02/18 04:23:44;;;;;;;67.15;20.55;;;;;;;5.72;100.00;99176.30;1801021;79;21720;-95
2022/02/18 04:26:10;;;;;;;72.75;20.57;;;;;;;5.75;100.00;99181.12;1800851;79;21075;-95
2022/02/18 04:28:36;;;;;;;61.50;19.42;;;;;;;5.76;100.00;99183.52;1800811;79;21692;-95
2022/02/18 04:31:02;;;;;;;63.15;21.97;;;;;;;5.77;100.00;99177.13;1800448;79;20919;-95
2022/02/18 04:33:28;;;;;;;62.03;21.07;;;;;;;5.79;100.00;99183.00;1800656;79;21039;-95
2022/02/18 04:35:54;;;;;;;61.05;22.00;;;;;;;5.76;100.00;99188.07;1800853;79;20868;-95
2022/02/18 04:38:20;;;;;;;60.03;20.80;;;;;;;5.77;100.00;99184.34;1800559;79;21155;-95
2022/02/18 04:40:46;;;;;;;65.22;21.70;;;;;;;5.79;100.00;99188.34;1800671;79;20934;-94
2022/02/18 04:43:12;;;;;;;68.45;21.55;;;;;;;5.79;100.00;99186.20;1800904;79;20889;-94
2022/02/18 04:45:38;;;;;;;64.95;19.55;;;;;;;5.78;100.00;99184.61;1800789;79;20859;-94
2022/02/18 04:48:05;;;;;;;66.53;21.15;;;;;;;5.74;100.00;99190.22;1800649;79;21062;-95
2022/02/18 04:50:32;;;;;;;60.92;20.17;;;;;;;5.69;100.00;99190.99;1800767;79;22104;-95
2022/02/18 04:52:58;;;;;;;66.33;21.73;;;;;;;5.66;100.00;99202.20;1800682;79;20995;-95
2022/02/18 04:55:24;;;;;;;71.80;22.67;;;;;;;5.65;100.00;99204.62;1801117;79;20883;-95
2022/02/18 04:57:50;;;;;;;66.95;21.42;;;;;;;5.64;100.00;99205.67;1800986;79;20836;-95
2022/02/18 05:00:18;;;;;;;67.32;20.45;;;;;;;5.64;100.00;99210.47;1800766;79;21003;-95
2022/02/18 05:02:45;;;;;;;73.85;22.37;;;;;;;5.63;100.00;99204.07;1800509;79;21101;-96
2022/02/18 05:05:11;;;;;;;63.83;20.75;;;;;;;5.61;100.00;99216.34;1800565;79;20959;-95
2022/02/18 05:07:37;;;;;;;69.15;20.10;;;;;;;5.60;100.00;99222.77;1800786;79;21479;-94
2022/02/18 05:10:05;;;;;;;62.78;22.32;;;;;;;5.60;100.00;99226.77;1795184;79;20948;-95
2022/02/18 05:12:31;;;;;;;72.27;21.40;;;;;;;5.57;100.00;99235.31;1800685;79;20999;-95
2022/02/18 05:14:57;;;;;;;71.00;21.35;;;;;;;5.58;100.00;99234.77;1800802;79;21189;-96
2022/02/18 05:17:23;;;;;;;69.03;22.58;;;;;;;5.58;100.00;99230.22;1769031;79;20939;-95
2022/02/18 05:19:49;;;;;;;60.92;20.00;;;;;;;5.59;100.00;99223.01;1800843;79;21629;-96
2022/02/18 05:22:16;;;;;;;54.08;20.40;;;;;;;5.56;100.00;99226.20;1769619;79;21021;-95
2022/02/18 05:24:41;;;;;;;66.25;21.00;;;;;;;5.54;100.00;99228.34;1769397;79;20999;-96
2022/02/18 05:27:08;;;;;;;68.12;21.82;;;;;;;5.52;100.00;99228.59;1769363;79;21123;-96
2022/02/18 05:29:35;;;;;;;63.83;21.75;;;;;;;5.52;100.00;99229.93;1800771;79;20995;-95
2022/02/18 05:32:02;;;;;;;67.58;19.90;;;;;;;5.55;100.00;99235.30;1769509;79;20987;-96
2022/02/18 05:34:28;;;;;;;68.62;23.07;;;;;;;5.55;100.00;99236.63;1800978;79;21057;-96
2022/02/18 05:37:31;;;;;;;68.65;21.82;;;;;;;5.59;100.00;99231.85;1802856;79;21038;-96
2022/02/18 05:39:58;;;;;;;66.37;21.83;;;;;;;5.60;100.00;99237.45;1590208;88;21216;-96
2022/02/18 05:45:47;;;;;;;66.72;22.55;;;;;;;5.68;100.00;99244.98;1496017;94;21175;-95
2022/02/18 05:48:13;;;;;;;65.67;22.25;;;;;;;5.75;100.00;99258.10;1474036;97;21201;-93
2022/02/18 05:50:39;;;;;;;68.30;23.57;;;;;;;5.72;100.00;99252.48;1474150;96;21391;-94
2022/02/18 05:53:05;;;;;;;71.92;24.32;;;;;;;5.84;100.00;99273.11;1454108;98;21128;-94
2022/02/18 05:55:31;;;;;;;66.95;24.55;;;;;;;5.94;100.00;99271.83;1472564;97;21779;-94
2022/02/18 05:57:59;;;;;;;80.32;25.52;;;;;;;6.05;100.00;99264.12;1470771;96;20949;-96
2022/02/18 06:03:14;;;;;;;74.27;25.65;;;;;;;6.26;100.00;99270.33;1328679;106;21196;-96
2022/02/18 06:05:40;;;;;;;68.78;25.15;;;;;;;6.41;100.00;99274.11;1345053;106;21178;-96
2022/02/18 06:08:07;;;;;;;73.37;26.68;;;;;;;6.53;100.00;99278.67;1346388;106;21161;-96
2022/02/18 06:10:43;;;;;;;78.92;28.35;;;;;;;6.64;100.00;99269.59;1345161;106;21244;-95
2022/02/18 06:13:10;;;;;;;95.62;33.10;;;;;;;6.87;100.00;99274.16;1350065;105;21143;-96
2022/02/18 06:15:36;;;;;;;83.30;29.90;;;;;;;7.19;100.00;99268.52;1374688;99;21114;-91
2022/02/18 06:18:04;;;;;;;80.50;29.20;;;;;;;7.32;100.00;99267.95;1418937;99;21862;-89
2022/02/18 06:20:31;;;;;;;87.78;30.95;;;;;;;7.42;100.00;99277.87;1404014;100;21232;-91
2022/02/18 06:22:57;;;;;;;76.10;28.27;;;;;;;7.47;100.00;99276.50;1429443;98;21618;-91
2022/02/18 06:25:23;;;;;;;76.37;28.90;;;;;;;7.58;100.00;99278.63;1434276;99;21164;-90
2022/02/18 06:27:49;;;;;;;85.00;29.98;;;;;;;7.62;100.00;99272.45;1438707;96;21162;-91
2022/02/18 06:30:15;;;;;;;72.78;26.23;;;;;;;7.70;100.00;99273.21;1555273;90;21216;-88
2022/02/18 06:32:43;;;;;;;79.50;27.90;;;;;;;7.71;100.00;99283.42;1568848;90;21128;-90
2022/02/18 06:35:09;;;;;;;74.47;26.70;;;;;;;7.70;100.00;99283.94;1600896;89;21222;-92
2022/02/18 06:37:35;;;;;;;72.17;27.73;;;;;;;7.68;100.00;99275.93;1561946;88;21189;-93
2022/02/18 06:40:02;;;;;;;76.82;25.35;;;;;;;7.67;100.00;99287.17;1607443;86;21048;-92
2022/02/18 06:42:28;;;;;;;77.35;26.35;;;;;;;7.69;100.00;99288.25;1643869;86;21556;-93
2022/02/18 06:44:54;;;;;;;74.62;26.75;;;;;;;7.65;100.00;99297.38;1650959;85;21120;-94
2022/02/18 06:47:21;;;;;;;72.97;25.57;;;;;;;7.70;100.00;99300.03;1642177;86;20955;-89
2022/02/18 06:49:47;;;;;;;74.80;25.82;;;;;;;7.70;100.00;99300.03;1644031;86;21161;-90
2022/02/18 06:52:13;;;;;;;68.72;24.02;;;;;;;7.77;100.00;99311.03;1639539;86;21012;-89
2022/02/18 06:54:39;;;;;;;68.97;24.80;;;;;;;7.84;100.00;99310.19;1641508;86;21977;-90
2022/02/18 06:57:05;;;;;;;65.03;24.15;;;;;;;7.86;100.00;99310.19;1638278;86;20916;-89
2022/02/18 06:59:31;;;;;;;65.32;24.75;;;;;;;7.95;100.00;99320.61;1638551;86;21138;-90
2022/02/18 07:01:57;;;;;;;65.60;23.25;;;;;;;8.02;100.00;99320.86;1632747;84;21096;-90
2022/02/18 07:04:25;;;;;;;74.90;23.95;;;;;;;8.06;100.00;99324.07;1618069;84;21841;-90
2022/02/18 07:06:52;;;;;;;65.65;24.07;;;;;;;8.09;100.00;99322.70;1673160;84;21706;-90
2022/02/18 07:09:18;;;;;;;66.12;22.95;;;;;;;8.18;100.00;99329.13;1666690;85;21106;-90
2022/02/18 07:11:45;;;;;;;63.63;22.87;;;;;;;8.37;100.00;99327.95;1654828;85;21075;-88
2022/02/18 07:14:28;;;;;;;60.15;22.80;;;;;;;8.64;100.00;99332.38;1655117;85;21098;-88
2022/02/18 07:16:58;;;;;;;55.55;19.87;;;;;;;9.01;100.00;99334.30;1650098;84;21105;-89
2022/02/18 07:19:24;;;;;;;54.75;21.45;;;;;;;9.24;100.00;99332.78;1694495;84;21208;-90
2022/02/18 07:22:08;;;;;;;54.45;21.00;;;;;;;9.35;100.00;99323.52;1664498;84;21084;-88
2022/02/18 07:24:35;;;;;;;48.30;18.75;;;;;;;9.67;100.00;99329.66;1700438;83;21025;-89
2022/02/18 07:27:01;;;;;;;46.63;17.42;;;;;;;9.92;100.00;99322.42;1700379;83;21622;-89
2022/02/18 07:29:29;;;;;;;49.45;17.05;;;;;;;10.20;100.00;99331.49;1710499;83;21085;-89
2022/02/18 07:35:45;;;;;;;48.25;16.67;;;;;;;10.88;100.00;99342.45;1606842;88;21102;-89
2022/02/18 07:38:11;;;;;;;32.42;14.47;;;;;;;12.18;100.00;99351.58;1605556;89;21107;-88
2022/02/18 07:40:41;;;;;;;32.33;14.10;;;;;;;13.75;100.00;99351.72;1605528;89;21213;-89
2022/02/18 07:43:07;;;;;;;32.67;14.60;;;;;;;14.48;100.00;99362.18;1598213;89;21114;-90
2022/02/18 07:45:33;;;;;;;27.42;13.18;;;;;;;15.50;100.00;99362.27;1594404;88;21106;-90
2022/02/18 07:47:59;;;;;;;22.60;11.85;;;;;;;17.45;100.00;99366.21;1576633;89;21165;-91
2022/02/18 07:50:26;;;;;;;22.67;10.75;;;;;;;19.45;100.00;99357.42;1593941;89;22379;-92
2022/02/18 07:52:53;;;;;;;20.45;10.60;;;;;;;20.97;100.00;99359.86;1578430;86;20998;-90
2022/02/18 07:55:19;;;;;;;17.98;9.70;;;;;;;22.18;100.00;99362.15;1649996;86;21063;-89
2022/02/18 07:57:46;;;;;;;18.10;9.90;;;;;;;23.19;90.49;99366.29;1662703;86;21212;-89
2022/02/18 08:02:42;;;;;;;19.90;9.25;;;;;;;21.94;61.69;99372.09;1604637;87;21095;-90
2022/02/18 08:05:09;;;;;;;17.65;9.28;;;;;;;20.69;61.57;99375.13;1593237;87;21485;-88
2022/02/18 08:07:35;;;;;;;19.45;8.70;;;;;;;19.56;59.61;99379.58;1581575;90;21581;-88
2022/02/18 08:10:01;;;;;;;17.82;8.60;;;;;;;18.17;60.20;99383.05;1603754;88;21693;-87
2022/02/18 08:12:28;;;;;;;19.80;8.25;;;;;;;17.27;62.83;99386.00;1593106;88;21130;-88
2022/02/18 08:14:54;;;;;;;21.68;8.58;;;;;;;16.43;64.91;99381.84;1598150;88;21161;-88
2022/02/18 08:17:20;;;;;;;18.67;9.28;;;;;;;15.76;65.90;99385.33;1575021;90;21664;-87
2022/02/18 08:19:46;;;;;;;19.60;8.35;;;;;;;14.94;69.13;99385.22;1585985;88;21121;-87
2022/02/18 08:22:13;;;;;;;17.17;8.45;;;;;;;14.54;76.19;99388.05;1599992;87;21093;-87
2022/02/18 08:24:40;;;;;;;22.13;8.55;;;;;;;14.22;79.06;99392.70;1577223;91;21155;-87
2022/02/18 08:27:07;;;;;;;17.45;8.28;;;;;;;14.05;85.08;99410.25;1546092;91;21650;-85
2022/02/18 08:29:33;;;;;;;18.85;8.58;;;;;;;13.89;85.49;99404.45;1577538;91;21134;-86
2022/02/18 08:31:59;;;;;;;21.33;7.87;;;;;;;13.72;87.57;99409.77;1593237;85;21066;-87
2022/02/18 08:34:25;;;;;;;18.32;8.10;;;;;;;13.44;88.98;99409.89;1679273;83;21752;-86
2022/02/18 08:36:51;;;;;;;21.05;8.58;;;;;;;13.15;90.72;99404.89;1651540;85;21017;-86
2022/02/18 08:39:18;;;;;;;20.15;8.35;;;;;;;12.84;94.56;99413.67;1674521;85;21038;-86
2022/02/18 08:41:44;;;;;;;20.37;8.95;;;;;;;12.60;97.33;99402.31;1674499;85;21410;-86
2022/02/18 08:44:10;;;;;;;21.00;8.35;;;;;;;12.23;99.72;99410.88;1674492;85;21072;-86
2022/02/18 08:46:36;;;;;;;20.15;7.92;;;;;;;12.09;100.00;99408.19;1674485;85;21088;-86
2022/02/18 08:49:03;;;;;;;22.10;7.83;;;;;;;11.99;100.00;99411.86;1674433;85;21622;-88
2022/02/18 08:51:30;;;;;;;16.75;7.22;;;;;;;11.88;100.00;99410.43;1674203;85;21065;-86
2022/02/18 08:53:56;;;;;;;15.32;6.95;;;;;;;11.75;100.00;99419.28;1674156;85;21229;-86
2022/02/18 08:56:25;;;;;;;18.27;7.03;;;;;;;11.74;100.00;99423.89;1674636;85;21644;-86
2022/02/18 08:58:51;;;;;;;18.95;7.95;;;;;;;11.74;100.00;99422.54;1674511;85;21203;-85
2022/02/18 09:01:17;;;;;;;16.85;6.75;;;;;;;11.58;100.00;99417.13;1674613;85;20926;-86
2022/02/18 09:03:43;;;;;;;14.80;6.72;;;;;;;11.52;100.00;99419.66;1674630;85;21101;-86
2022/02/18 09:06:09;;;;;;;15.10;6.08;;;;;;;11.30;100.00;99416.25;1674362;85;20929;-87
2022/02/18 09:08:35;;;;;;;15.60;5.58;;;;;;;11.26;100.00;99416.56;1674275;85;22932;-86
2022/02/18 09:11:01;;;;;;;13.00;5.85;;;;;;;11.19;100.00;99415.59;1674456;85;21062;-86
2022/02/18 09:13:27;;;;;;;14.00;5.97;;;;;;;11.22;100.00;99415.01;1674505;85;21015;-86
2022/02/18 09:15:54;;;;;;;13.65;5.92;;;;;;;11.21;100.00;99413.97;1674457;85;21096;-86
2022/02/18 09:18:20;;;;;;;12.05;5.17;;;;;;;11.15;100.00;99410.55;1690852;82;21504;-86
2022/02/18 09:20:48;;;;;;;18.77;6.05;;;;;;;11.28;100.00;99415.18;1725136;82;21096;-86
2022/02/18 09:23:15;;;;;;;14.15;5.62;;;;;;;11.49;100.00;99414.86;1771431;80;21779;-86
2022/02/18 09:25:41;;;;;;;15.68;5.42;;;;;;;11.36;100.00;99428.01;1771211;80;22237;-86
2022/02/18 09:28:08;;;;;;;13.45;6.17;;;;;;;11.37;100.00;99436.34;1771254;80;21000;-86
2022/02/18 09:30:39;;;;;;;13.03;5.60;;;;;;;11.53;100.00;99434.23;1771360;80;21487;-86
2022/02/18 09:33:05;;;;;;;15.40;6.33;;;;;;;11.63;100.00;99431.90;1760233;81;21003;-86
2022/02/18 09:35:31;;;;;;;11.85;5.58;;;;;;;11.52;100.00;99425.86;1746609;80;21094;-86
2022/02/18 09:37:57;;;;;;;13.25;5.62;;;;;;;11.37;100.00;99424.76;1741721;81;21107;-85
2022/02/18 09:40:23;;;;;;;14.33;6.17;;;;;;;11.29;100.00;99422.72;1734370;82;21040;-86
2022/02/18 09:42:49;;;;;;;10.90;5.05;;;;;;;11.25;100.00;99427.91;1755123;81;21030;-86
2022/02/18 09:45:17;;;;;;;12.85;5.20;;;;;;;11.22;100.00;99427.14;1771456;81;21083;-85
2022/02/18 09:47:43;;;;;;;10.23;4.70;;;;;;;11.07;100.00;99440.30;1770894;81;21110;-86
2022/02/18 09:50:10;;;;;;;14.00;5.22;;;;;;;10.83;100.00;99441.71;1771037;80;21055;-86
2022/02/18 09:52:37;;;;;;;8.53;4.30;;;;;;;10.55;100.00;99446.09;1771221;81;21031;-85
2022/02/18 09:55:05;;;;;;;10.88;4.25;;;;;;;10.44;100.00;99458.06;1740761;81;21091;-85
2022/02/18 09:57:36;;;;;;;11.70;3.90;;;;;;;10.20;100.00;99462.06;1771159;80;21031;-86
2022/02/18 10:00:07;;;;;;;7.20;3.92;;;;;;;10.08;100.00;99464.35;1771074;81;22014;-86
2022/02/18 10:02:36;;;;;;;7.28;3.50;;;;;;;9.97;100.00;99463.63;1716489;83;21070;-85
2022/02/18 10:05:03;;;;;;;10.93;3.83;;;;;;;10.08;100.00;99467.84;1719402;83;21008;-86
2022/02/18 10:07:31;;;;;;;6.22;3.37;;;;;;;10.22;100.00;99474.71;1700477;84;22204;-86
2022/02/18 10:09:58;;;;;;;10.28;3.95;;;;;;;10.23;100.00;99476.31;1716748;83;21638;-86
2022/02/18 10:12:36;;;;;;;7.35;3.70;;;;;;;10.24;100.00;99472.55;1719044;83;21184;-86
2022/02/18 10:15:10;;;;;;;8.00;3.98;;;;;;;10.11;100.00;99478.59;1700586;84;21068;-86
2022/02/18 10:17:40;;;;;;;10.45;4.25;;;;;;;9.92;100.00;99477.95;1700513;84;21165;-86
2022/02/18 10:20:27;;;;;;;8.45;4.35;;;;;;;9.81;100.00;99481.02;1674940;85;21556;-86
2022/02/18 10:23:07;;;;;;;7.87;3.67;;;;;;;9.75;100.00;99477.56;1674790;85;21019;-86
2022/02/18 10:25:37;;;;;;;12.13;3.50;;;;;;;9.68;100.00;99479.23;1673181;85;21370;-86
2022/02/18 10:28:06;;;;;;;7.50;3.65;;;;;;;9.65;100.00;99489.22;1669568;85;21022;-86
2022/02/18 10:30:33;;;;;;;7.30;3.35;;;;;;;9.63;100.00;99486.54;1698423;84;21217;-86
2022/02/18 10:33:13;;;;;;;6.78;3.25;;;;;;;9.63;100.00;99498.09;1698874;84;21030;-86
2022/02/18 10:35:40;;;;;;;6.90;3.67;;;;;;;9.63;100.00;99504.02;1690688;84;21637;-86
2022/02/18 10:38:08;;;;;;;6.15;3.42;;;;;;;9.41;100.00;99509.80;1686606;85;21165;-86
2022/02/18 10:40:47;;;;;;;6.20;3.45;;;;;;;9.35;100.00;99517.09;1686859;85;21034;-86
2022/02/18 10:43:18;;;;;;;6.83;2.98;;;;;;;9.28;100.00;99517.95;1633712;87;21089;-86
2022/02/18 10:46:02;;;;;;;7.08;3.47;;;;;;;9.21;100.00;99529.57;1633315;87;21543;-85
2022/02/18 10:48:50;;;;;;;5.62;3.40;;;;;;;9.01;100.00;99523.20;1630443;87;21533;-85
2022/02/18 10:51:30;;;;;;;6.33;3.50;;;;;;;9.01;100.00;99523.20;1643775;87;21183;-86
2022/02/18 10:53:51;;;;;;;6.03;3.62;;;;;;;8.97;100.00;99539.62;1644170;87;21121;-87
2022/02/18 10:56:20;;;;;;;8.25;3.83;;;;;;;8.78;100.00;99546.66;1644031;86;21147;-86
2022/02/18 10:58:50;;;;;;;8.85;4.35;;;;;;;8.62;100.00;99549.40;1641019;84;21013;-86
2022/02/18 11:01:24;;;;;;;6.40;3.58;;;;;;;8.55;100.00;99560.14;1642829;86;21117;-86
2022/02/18 11:04:12;;;;;;;6.87;3.92;;;;;;;8.44;100.00;99555.86;1642983;86;21100;-87
2022/02/18 11:06:38;;;;;;;6.90;4.00;;;;;;;8.46;100.00;99558.55;1642621;87;21065;-89
2022/02/18 11:09:08;;;;;;;8.23;3.80;;;;;;;8.39;100.00;99570.11;1639044;87;21097;-88
2022/02/18 11:11:46;;;;;;;5.95;3.65;;;;;;;8.44;100.00;99580.83;1642695;87;21100;-87
2022/02/18 11:14:15;;;;;;;7.85;3.50;;;;;;;8.46;100.00;99585.40;1643048;87;21125;-87
2022/02/18 11:16:46;;;;;;;6.72;3.45;;;;;;;8.51;100.00;99591.31;1648745;86;21111;-87
2022/02/18 11:19:15;;;;;;;5.30;3.00;;;;;;;8.58;100.00;99587.80;1659852;86;21197;-86
2022/02/18 11:21:44;;;;;;;3.83;2.75;;;;;;;8.60;100.00;99591.83;1656954;86;22217;-89
2022/02/18 11:24:11;;;;;;;6.17;3.25;;;;;;;8.56;100.00;99587.25;1657674;86;21051;-88
2022/02/18 11:26:37;;;;;;;4.78;2.92;;;;;;;8.44;100.00;99588.87;1655261;86;21153;-86
2022/02/18 11:29:03;;;;;;;5.60;3.20;;;;;;;8.37;100.00;99593.70;1644677;87;21146;-88
2022/02/18 11:31:42;;;;;;;6.83;3.80;;;;;;;8.36;100.00;99602.84;1644708;87;20910;-87
2022/02/18 11:34:54;;;;;;;5.58;3.40;;;;;;;8.16;100.00;99613.03;1644487;87;21659;-88